Time;durP1;ratioP1;P1;durP2;ratioP2;P2;SDS_P1;SDS_P2;PMS_P1;PMS_P2;Temp;Humidity;BMP_temperature;BMP_pressure;BME280_temperature;BME280_humidity;BME280_pressure;Samples;Min_cycle;Max_cycle;Signal;HPM_P1;HPM_P2
2023/02/09 00:00:11;;;;;;;20.15;12.90;;;-3.10;99.90;;;;;;486551;244;27405;-75
2023/02/09 00:02:11;;;;;;;24.17;12.68;;;-3.10;99.90;;;;;;486503;244;27221;-75
2023/02/09 00:04:13;;;;;;;22.37;12.45;;;-3.20;99.90;;;;;;486517;244;27367;-75
2023/02/09 00:06:14;;;;;;;20.55;11.70;;;-3.30;99.90;;;;;;486564;244;27921;-75
2023/02/09 00:08:15;;;;;;;20.73;12.43;;;-3.30;99.90;;;;;;486547;244;28015;-75
2023/02/09 00:10:16;;;;;;;18.70;11.43;;;-3.30;99.90;;;;;;486494;244;27142;-75
2023/02/09 00:14:37;;;;;;;18.90;12.00;;;-3.40;99.90;;;;;;486559;244;27284;-77
2023/02/09 00:16:38;;;;;;;21.87;12.77;;;-3.40;99.90;;;;;;486551;244;27106;-75
2023/02/09 00:18:39;;;;;;;26.85;14.63;;;-3.40;99.90;;;;;;486528;244;27030;-76
2023/02/09 00:20:41;;;;;;;24.95;13.27;;;-3.50;99.90;;;;;;486559;244;27049;-75
2023/02/09 00:22:42;;;;;;;27.05;14.10;;;-3.50;99.90;;;;;;486532;244;27767;-75
2023/02/09 00:24:43;;;;;;;24.25;13.70;;;-3.60;99.90;;;;;;486578;244;28913;-76
2023/02/09 00:26:45;;;;;;;25.35;14.10;;;-3.60;99.90;;;;;;486548;244;27290;-75
2023/02/09 00:28:46;;;;;;;24.85;14.20;;;-3.60;99.90;;;;;;486540;244;27294;-75
2023/02/09 00:30:47;;;;;;;19.60;12.20;;;-3.60;99.90;;;;;;486529;244;27246;-75
2023/02/09 00:32:48;;;;;;;28.90;15.98;;;-3.60;99.90;;;;;;486523;244;27217;-75
2023/02/09 00:34:50;;;;;;;27.20;16.75;;;-3.60;99.90;;;;;;486545;244;27914;-77
2023/02/09 00:36:51;;;;;;;24.05;14.93;;;-3.60;99.90;;;;;;486548;244;28839;-75
2023/02/09 00:38:52;;;;;;;29.45;16.60;;;-3.70;99.90;;;;;;486547;244;27138;-76
2023/02/09 00:40:53;;;;;;;22.55;13.60;;;-3.70;99.90;;;;;;486519;244;27224;-75
2023/02/09 00:42:55;;;;;;;25.27;14.50;;;-3.80;99.90;;;;;;486578;244;27183;-75
2023/02/09 00:44:56;;;;;;;31.17;15.48;;;-3.70;99.90;;;;;;486561;244;27027;-75
2023/02/09 00:46:57;;;;;;;24.77;14.15;;;-3.80;99.90;;;;;;486521;244;27010;-75
2023/02/09 00:48:58;;;;;;;26.20;14.18;;;-3.90;99.90;;;;;;486574;244;27800;-75
2023/02/09 00:51:01;;;;;;;20.67;12.70;;;;;;;;;;486551;244;26940;-75
2023/02/09 00:53:02;;;;;;;20.20;12.15;;;-4.00;99.90;;;;;;486579;244;26683;-76
2023/02/09 00:55:05;;;;;;;20.30;12.30;;;;;;;;;;486535;244;27440;-75
2023/02/09 00:57:06;;;;;;;22.20;13.55;;;-4.00;99.90;;;;;;486514;244;26571;-75
2023/02/09 00:59:07;;;;;;;20.77;12.40;;;-4.00;99.90;;;;;;486557;244;27189;-75
2023/02/09 01:01:08;;;;;;;21.87;13.75;;;-4.00;99.90;;;;;;486554;244;27184;-75
2023/02/09 01:03:10;;;;;;;18.17;11.48;;;-4.00;99.90;;;;;;486557;244;27745;-75
2023/02/09 01:05:12;;;;;;;22.45;12.88;;;;;;;;;;486507;244;27209;-75
2023/02/09 01:07:13;;;;;;;22.37;13.73;;;-4.00;99.90;;;;;;486565;242;26825;-75
2023/02/09 01:09:15;;;;;;;24.30;14.52;;;-3.90;99.90;;;;;;486569;244;27760;-75
2023/02/09 01:11:16;;;;;;;22.73;14.10;;;-3.90;99.90;;;;;;486529;244;27634;-75
2023/02/09 01:13:17;;;;;;;24.52;14.52;;;-3.90;99.90;;;;;;486526;244;27150;-74
2023/02/09 01:15:18;;;;;;;24.92;15.20;;;-4.00;99.90;;;;;;486515;244;26978;-75
2023/02/09 01:17:20;;;;;;;23.60;14.10;;;-4.10;99.90;;;;;;486529;244;27215;-75
2023/02/09 01:19:22;;;;;;;24.63;13.43;;;;;;;;;;486593;244;27468;-74
2023/02/09 01:21:25;;;;;;;22.95;14.55;;;;;;;;;;486554;244;26869;-75
2023/02/09 01:23:26;;;;;;;21.87;13.50;;;-4.20;99.90;;;;;;486565;244;27301;-75
2023/02/09 01:25:27;;;;;;;24.08;14.00;;;-4.20;99.90;;;;;;486558;244;27477;-76
2023/02/09 01:27:28;;;;;;;36.42;15.52;;;-4.20;99.90;;;;;;486531;244;27093;-76
2023/02/09 01:29:31;;;;;;;26.25;13.70;;;;;;;;;;486519;244;27085;-75
2023/02/09 01:31:33;;;;;;;23.25;13.70;;;;;;;;;;486536;244;28344;-75
2023/02/09 01:33:34;;;;;;;21.87;12.27;;;-4.30;99.90;;;;;;486549;244;26579;-75
2023/02/09 01:35:37;;;;;;;28.40;14.60;;;;;;;;;;486505;244;26983;-75
2023/02/09 01:37:39;;;;;;;23.73;14.02;;;;;;;;;;486559;242;26610;-75
2023/02/09 01:39:42;;;;;;;26.75;15.00;;;;;;;;;;486582;244;27064;-76
2023/02/09 01:41:43;;;;;;;24.63;14.43;;;-4.20;99.90;;;;;;486548;240;26611;-75
2023/02/09 01:43:45;;;;;;;28.42;15.43;;;;;;;;;;486533;244;27194;-75
2023/02/09 01:45:47;;;;;;;23.95;14.30;;;-4.20;99.90;;;;;;486587;244;26609;-75
2023/02/09 01:47:48;;;;;;;25.52;14.73;;;-4.20;99.90;;;;;;486519;244;27090;-76
2023/02/09 01:49:50;;;;;;;22.95;13.73;;;-4.20;99.90;;;;;;486514;244;27066;-75
2023/02/09 01:51:52;;;;;;;25.88;14.98;;;;;;;;;;486539;244;27570;-75
2023/02/09 01:53:54;;;;;;;29.95;15.43;;;;;;;;;;486499;244;26618;-75
2023/02/09 01:55:55;;;;;;;23.10;14.57;;;-4.40;99.90;;;;;;486530;244;27195;-76
2023/02/09 01:57:58;;;;;;;28.35;15.30;;;;;;;;;;486497;244;27017;-75
2023/02/09 01:59:59;;;;;;;26.10;14.98;;;-4.40;99.90;;;;;;486536;244;27026;-75
2023/02/09 02:02:00;;;;;;;28.05;15.70;;;-4.40;99.90;;;;;;486541;244;27601;-75
2023/02/09 02:04:03;;;;;;;24.30;15.20;;;;;;;;;;486233;244;26950;-75
2023/02/09 02:06:05;;;;;;;25.25;14.55;;;;;;;;;;486570;244;26567;-75
2023/02/09 02:08:08;;;;;;;22.98;13.38;;;;;;;;;;486518;244;26535;-75
2023/02/09 02:10:09;;;;;;;25.95;14.85;;;-4.40;99.90;;;;;;486532;244;27172;-75
2023/02/09 02:12:11;;;;;;;26.50;15.32;;;;;;;;;;486563;244;27133;-75
2023/02/09 02:14:12;;;;;;;25.92;14.40;;;-4.50;99.90;;;;;;486540;244;26562;-76
2023/02/09 02:16:14;;;;;;;21.40;12.55;;;-4.40;99.90;;;;;;486502;244;27503;-75
2023/02/09 02:18:15;;;;;;;27.05;14.30;;;-4.50;99.90;;;;;;486522;244;27521;-75
2023/02/09 02:20:17;;;;;;;25.37;15.35;;;;;;;;;;486554;244;27526;-75
2023/02/09 02:22:20;;;;;;;23.02;14.02;;;;;;;;;;486558;244;27046;-75
2023/02/09 02:24:22;;;;;;;26.27;14.02;;;;;;;;;;486521;244;26559;-75
2023/02/09 02:26:23;;;;;;;20.98;13.30;;;-4.50;99.90;;;;;;486554;244;26801;-74
2023/02/09 02:28:26;;;;;;;23.55;13.48;;;;;;;;;;486528;244;27009;-75
2023/02/09 02:30:28;;;;;;;21.62;12.65;;;;;;;;;;486465;244;28055;-74
2023/02/09 02:32:31;;;;;;;26.40;15.85;;;;;;;;;;486509;244;26801;-74
2023/02/09 02:34:33;;;;;;;22.52;13.77;;;;;;;;;;486297;244;26695;-74
2023/02/09 02:36:34;;;;;;;23.90;14.00;;;-4.60;99.90;;;;;;486481;244;26754;-75
2023/02/09 02:38:37;;;;;;;21.50;13.40;;;;;;;;;;486529;244;27507;-75
2023/02/09 02:40:38;;;;;;;23.40;14.43;;;-4.70;99.90;;;;;;486507;244;26519;-75
2023/02/09 02:42:53;;;;;;;21.10;12.90;;;;;;;;;;486493;244;27441;-75
2023/02/09 02:44:52;;;;;;;24.60;14.25;;;;;;;;;;486348;244;27086;-75
2023/02/09 02:46:53;;;;;;;25.80;13.38;;;-4.80;99.90;;;;;;486514;244;26630;-75
2023/02/09 02:48:56;;;;;;;22.45;13.62;;;;;;;;;;486510;244;27466;-75
2023/02/09 02:50:58;;;;;;;24.20;13.00;;;;;;;;;;486529;244;27241;-75
2023/02/09 02:53:01;;;;;;;21.33;13.15;;;;;;;;;;486533;244;26829;-75
2023/02/09 02:55:02;;;;;;;22.40;12.77;;;-4.90;99.90;;;;;;486491;244;27068;-75
2023/02/09 02:57:04;;;;;;;25.48;14.07;;;;;;;;;;486560;244;27482;-75
2023/02/09 02:59:05;;;;;;;26.00;13.73;;;-5.00;99.90;;;;;;486569;244;27246;-75
2023/02/09 03:01:07;;;;;;;22.83;14.10;;;-5.00;99.90;;;;;;486499;244;27440;-75
2023/02/09 03:03:08;;;;;;;23.55;14.87;;;-4.90;99.90;;;;;;486528;244;27470;-75
2023/02/09 03:05:09;;;;;;;22.65;12.65;;;-4.90;99.90;;;;;;486531;244;27423;-74
2023/02/09 03:07:11;;;;;;;31.87;15.40;;;-5.00;99.90;;;;;;486540;244;27414;-75
2023/02/09 03:09:12;;;;;;;24.55;13.95;;;-5.00;99.90;;;;;;486548;244;27470;-74
2023/02/09 03:11:13;;;;;;;30.00;14.98;;;-5.00;99.90;;;;;;486534;244;27929;-75
2023/02/09 03:13:16;;;;;;;26.10;14.32;;;;;;;;;;486446;241;27917;-75
2023/02/09 03:15:17;;;;;;;22.33;13.07;;;-5.00;99.90;;;;;;486533;244;26771;-75
2023/02/09 03:17:18;;;;;;;19.83;12.13;;;-5.00;99.90;;;;;;486513;244;27974;-75
2023/02/09 03:19:19;;;;;;;22.65;14.45;;;-5.00;99.90;;;;;;486513;244;28061;-74
2023/02/09 03:21:21;;;;;;;27.35;16.25;;;-5.00;99.90;;;;;;486489;244;27553;-75
2023/02/09 03:23:22;;;;;;;29.58;14.95;;;-5.10;99.90;;;;;;486538;244;27489;-75
2023/02/09 03:25:23;;;;;;;22.45;12.50;;;-5.10;99.90;;;;;;486466;244;27466;-75
2023/02/09 03:27:24;;;;;;;26.00;14.40;;;-5.20;99.90;;;;;;486522;244;27446;-75
2023/02/09 03:29:27;;;;;;;25.67;13.13;;;;;;;;;;486499;244;27398;-75
2023/02/09 03:31:28;;;;;;;26.98;14.87;;;-5.20;99.90;;;;;;486589;242;26610;-75
2023/02/09 03:33:29;;;;;;;24.35;12.98;;;-5.20;99.90;;;;;;486571;244;27418;-75
2023/02/09 03:35:31;;;;;;;24.70;13.73;;;-5.20;99.90;;;;;;486561;244;27478;-75
2023/02/09 03:37:33;;;;;;;25.70;13.73;;;;;;;;;;486552;244;27950;-75
2023/02/09 03:39:34;;;;;;;24.87;13.43;;;-5.30;99.90;;;;;;486569;244;26738;-75
2023/02/09 03:41:37;;;;;;;23.77;14.30;;;;;;;;;;486567;244;27421;-75
2023/02/09 03:45:59;;;;;;;23.52;13.85;;;;;;;;;;486515;244;27462;-74
2023/02/09 03:48:00;;;;;;;23.85;13.98;;;-5.30;99.90;;;;;;486506;242;26790;-75
2023/02/09 03:50:01;;;;;;;26.40;14.65;;;-5.30;99.90;;;;;;486530;244;27458;-74
2023/02/09 03:52:02;;;;;;;27.50;14.73;;;-5.30;99.90;;;;;;486540;244;27417;-74
2023/02/09 03:54:04;;;;;;;26.45;14.52;;;-5.30;99.90;;;;;;486544;244;27930;-74
2023/02/09 03:56:08;;;;;;;24.50;14.43;;;-5.30;99.90;;;;;;486572;244;27989;-75
2023/02/09 03:58:06;;;;;;;31.00;14.90;;;-5.40;99.90;;;;;;486504;244;27458;-75
2023/02/09 04:00:07;;;;;;;27.13;14.65;;;-5.40;99.90;;;;;;486555;243;27509;-76
2023/02/09 04:02:09;;;;;;;26.58;14.30;;;-5.40;99.90;;;;;;486529;244;27383;-74
2023/02/09 04:04:10;;;;;;;29.25;14.23;;;-5.40;99.90;;;;;;486573;244;27407;-75
2023/02/09 04:06:11;;;;;;;25.33;14.15;;;-5.40;99.90;;;;;;486591;244;27935;-75
2023/02/09 04:08:12;;;;;;;24.52;13.77;;;-5.40;99.90;;;;;;486547;244;28009;-75
2023/02/09 04:10:14;;;;;;;20.45;13.05;;;-5.40;99.90;;;;;;486523;244;27517;-75
2023/02/09 04:12:15;;;;;;;24.00;13.73;;;-5.40;99.90;;;;;;486502;244;27560;-75
2023/02/09 04:14:16;;;;;;;23.83;13.90;;;-5.40;99.90;;;;;;486532;244;27474;-74
2023/02/09 04:16:17;;;;;;;25.42;14.43;;;-5.40;99.90;;;;;;486554;244;27442;-76
2023/02/09 04:18:19;;;;;;;24.17;13.20;;;-5.50;99.90;;;;;;486564;244;27403;-75
2023/02/09 04:20:20;;;;;;;25.15;15.15;;;-5.50;99.90;;;;;;486543;244;27953;-75
2023/02/09 04:22:21;;;;;;;29.98;14.05;;;-5.50;99.90;;;;;;486507;244;27394;-74
2023/02/09 04:24:22;;;;;;;32.40;16.08;;;-5.50;99.90;;;;;;486554;244;27470;-74
2023/02/09 04:26:24;;;;;;;29.45;14.70;;;-5.50;99.90;;;;;;486572;244;27545;-75
2023/02/09 04:28:25;;;;;;;22.48;14.50;;;-5.50;99.90;;;;;;486541;244;27422;-74
2023/02/09 04:30:26;;;;;;;22.52;13.80;;;-5.50;99.90;;;;;;486550;244;27472;-74
2023/02/09 04:32:27;;;;;;;24.77;14.27;;;-5.60;99.90;;;;;;486532;244;28679;-75
2023/02/09 04:34:29;;;;;;;30.55;15.93;;;-5.60;99.90;;;;;;486474;242;27869;-75
2023/02/09 04:36:30;;;;;;;25.90;15.00;;;-5.70;99.90;;;;;;486564;244;27470;-75
2023/02/09 04:38:31;;;;;;;32.00;16.17;;;-5.70;99.90;;;;;;486540;244;27399;-74
2023/02/09 04:40:32;;;;;;;26.50;15.18;;;-5.60;99.90;;;;;;486540;244;27577;-76
2023/02/09 04:42:34;;;;;;;23.50;13.73;;;-5.60;99.90;;;;;;486543;244;27406;-74
2023/02/09 04:44:35;;;;;;;28.60;16.33;;;-5.60;99.90;;;;;;486562;244;27979;-75
2023/02/09 04:46:36;;;;;;;27.37;14.65;;;-5.70;99.90;;;;;;486605;244;27941;-76
2023/02/09 04:48:38;;;;;;;26.33;14.35;;;-5.70;99.90;;;;;;486589;244;27480;-76
2023/02/09 04:50:39;;;;;;;26.42;14.38;;;-5.70;99.90;;;;;;486576;244;27450;-75
2023/02/09 04:52:40;;;;;;;27.65;15.68;;;-5.80;99.90;;;;;;486573;244;27434;-74
2023/02/09 04:54:41;;;;;;;26.37;14.30;;;-5.90;99.90;;;;;;486456;244;27486;-74
2023/02/09 04:56:43;;;;;;;24.10;14.02;;;-5.80;99.90;;;;;;486560;244;27567;-75
2023/02/09 05:01:03;;;;;;;24.55;14.05;;;-5.80;99.90;;;;;;486539;243;27530;-75
2023/02/09 05:03:05;;;;;;;29.25;14.87;;;-5.70;99.90;;;;;;486567;244;27490;-75
2023/02/09 05:05:06;;;;;;;26.83;14.55;;;-5.70;99.90;;;;;;486539;244;27477;-75
2023/02/09 05:07:07;;;;;;;28.48;15.82;;;-5.70;99.90;;;;;;486562;244;27928;-74
2023/02/09 05:09:08;;;;;;;28.25;15.90;;;-5.70;99.90;;;;;;486554;244;27461;-74
2023/02/09 05:11:10;;;;;;;29.73;15.10;;;-5.70;99.90;;;;;;486565;244;27414;-75
2023/02/09 05:13:11;;;;;;;29.12;14.98;;;-5.70;99.90;;;;;;486588;244;27470;-76
2023/02/09 05:15:12;;;;;;;26.85;14.93;;;-5.70;99.90;;;;;;486533;244;27466;-75
2023/02/09 05:17:14;;;;;;;27.52;15.10;;;-5.70;99.90;;;;;;486512;244;27557;-75
2023/02/09 05:19:15;;;;;;;27.55;15.73;;;-5.70;99.90;;;;;;486520;244;28897;-75
2023/02/09 05:21:16;;;;;;;25.27;14.50;;;-5.70;99.90;;;;;;486590;244;28598;-75
2023/02/09 05:23:17;;;;;;;27.67;14.18;;;-5.70;99.90;;;;;;486555;244;27435;-74
2023/02/09 05:25:19;;;;;;;28.33;16.45;;;-5.80;99.90;;;;;;486536;244;27403;-75
2023/02/09 05:27:20;;;;;;;29.08;14.85;;;-5.80;99.90;;;;;;486508;244;27557;-75
2023/02/09 05:29:21;;;;;;;26.17;13.73;;;-5.80;99.90;;;;;;486572;244;27466;-75
2023/02/09 05:31:22;;;;;;;23.33;14.32;;;-5.80;99.90;;;;;;486560;244;27970;-75
2023/02/09 05:33:24;;;;;;;25.90;14.30;;;-5.80;99.90;;;;;;486563;244;27925;-75
2023/02/09 05:35:25;;;;;;;29.10;15.88;;;-5.90;99.90;;;;;;486540;244;27394;-75
2023/02/09 05:37:26;;;;;;;28.17;15.75;;;-5.90;99.90;;;;;;486561;244;27457;-75
2023/02/09 05:39:27;;;;;;;29.25;15.73;;;-5.90;99.90;;;;;;486532;244;27446;-75
2023/02/09 05:43:48;;;;;;;29.15;15.93;;;-6.00;99.90;;;;;;486572;244;27438;-75
2023/02/09 05:45:49;;;;;;;27.42;14.98;;;-6.00;99.90;;;;;;486517;244;27399;-74
2023/02/09 05:47:51;;;;;;;25.30;14.05;;;-6.10;99.90;;;;;;486513;244;28010;-75
2023/02/09 05:49:52;;;;;;;29.67;16.37;;;-6.10;99.90;;;;;;486586;244;27901;-74
2023/02/09 05:51:53;;;;;;;25.67;14.82;;;-6.10;99.90;;;;;;486548;244;27391;-75
2023/02/09 05:53:55;;;;;;;29.75;15.98;;;-6.10;99.90;;;;;;486545;244;27517;-75
2023/02/09 05:55:56;;;;;;;26.77;14.68;;;-6.20;99.90;;;;;;486528;244;27547;-75
2023/02/09 05:57:57;;;;;;;25.50;14.57;;;-6.20;99.90;;;;;;486554;244;27481;-74
2023/02/09 05:59:58;;;;;;;24.55;15.43;;;-6.20;99.90;;;;;;486594;244;28073;-75
2023/02/09 06:01:59;;;;;;;28.83;15.00;;;-6.20;99.90;;;;;;486579;244;27874;-75
2023/02/09 06:04:01;;;;;;;29.98;16.65;;;-6.20;99.90;;;;;;486550;244;27536;-74
2023/02/09 06:06:02;;;;;;;25.15;14.80;;;-6.10;99.90;;;;;;486544;244;27414;-75
2023/02/09 06:08:03;;;;;;;31.75;16.73;;;-6.10;99.90;;;;;;486558;244;27434;-74
2023/02/09 06:10:04;;;;;;;31.55;16.27;;;-6.10;99.90;;;;;;486535;244;27530;-74
2023/02/09 06:12:06;;;;;;;29.12;14.90;;;-6.10;99.90;;;;;;486573;244;27399;-75
2023/02/09 06:14:07;;;;;;;28.75;16.12;;;-6.10;99.90;;;;;;486562;243;28024;-75
2023/02/09 06:16:08;;;;;;;28.65;17.37;;;-6.10;99.90;;;;;;486510;244;27399;-75
2023/02/09 06:18:09;;;;;;;32.88;17.52;;;-6.10;99.90;;;;;;486503;244;27478;-75
2023/02/09 06:20:11;;;;;;;30.25;15.65;;;-6.10;99.90;;;;;;486578;244;27896;-75
2023/02/09 06:22:12;;;;;;;26.25;15.35;;;-6.10;99.90;;;;;;486557;244;27482;-75
2023/02/09 06:24:14;;;;;;;25.77;14.93;;;-6.10;99.90;;;;;;486374;244;27496;-75
2023/02/09 06:26:14;;;;;;;24.85;15.13;;;-6.10;99.90;;;;;;486546;243;28041;-74
2023/02/09 06:28:16;;;;;;;26.80;16.23;;;-6.10;99.90;;;;;;486554;244;29092;-74
2023/02/09 06:30:17;;;;;;;27.92;16.80;;;-6.10;99.90;;;;;;486594;244;27434;-75
2023/02/09 06:32:18;;;;;;;26.98;16.48;;;-6.10;99.90;;;;;;486572;244;27399;-75
2023/02/09 06:34:20;;;;;;;28.45;15.48;;;-6.10;99.90;;;;;;486571;244;27453;-74
2023/02/09 06:36:21;;;;;;;28.20;15.52;;;-6.20;99.90;;;;;;486552;244;27553;-74
2023/02/09 06:38:22;;;;;;;31.25;16.70;;;-6.20;99.90;;;;;;486562;244;27954;-75
2023/02/09 06:40:23;;;;;;;28.95;15.75;;;-6.20;99.90;;;;;;486572;244;29098;-75
2023/02/09 06:42:42;;;;;;;32.00;16.20;;;-6.20;99.90;;;;;;486583;244;27394;-75
2023/02/09 06:44:26;;;;;;;29.77;16.23;;;-6.20;99.90;;;;;;486373;244;27545;-75
2023/02/09 06:46:27;;;;;;;32.45;16.15;;;-6.30;99.90;;;;;;486536;244;27461;-75
2023/02/09 06:48:28;;;;;;;30.12;16.33;;;-6.30;99.90;;;;;;486543;244;27485;-74
2023/02/09 06:50:30;;;;;;;36.92;19.55;;;-6.30;99.90;;;;;;486565;244;28041;-76
2023/02/09 06:52:31;;;;;;;50.83;25.62;;;-6.30;99.90;;;;;;486541;244;29942;-74
2023/02/09 06:54:32;;;;;;;49.63;25.40;;;-6.20;99.90;;;;;;486531;244;27514;-75
2023/02/09 06:56:33;;;;;;;39.53;19.33;;;-6.20;99.90;;;;;;486538;244;27462;-75
2023/02/09 06:58:35;;;;;;;32.40;17.92;;;-6.30;99.90;;;;;;486542;244;27414;-75
2023/02/09 07:00:36;;;;;;;28.40;17.33;;;-6.30;99.90;;;;;;486561;244;27485;-75
2023/02/09 07:02:37;;;;;;;32.67;17.40;;;-6.30;99.90;;;;;;486524;244;27529;-75
2023/02/09 07:04:38;;;;;;;33.50;17.70;;;-6.30;99.90;;;;;;486515;244;27945;-75
2023/02/09 07:06:40;;;;;;;35.42;17.45;;;-6.40;99.90;;;;;;486534;244;27441;-75
2023/02/09 07:08:41;;;;;;;30.80;17.65;;;-6.30;99.90;;;;;;486568;244;27434;-74
2023/02/09 07:10:42;;;;;;;32.33;16.95;;;-6.30;99.90;;;;;;486566;244;27533;-75
2023/02/09 07:12:43;;;;;;;32.50;17.58;;;-6.30;99.90;;;;;;486513;244;27435;-74
2023/02/09 07:14:45;;;;;;;29.95;18.83;;;-6.20;99.90;;;;;;486524;244;27437;-75
2023/02/09 07:16:46;;;;;;;32.83;18.55;;;-6.20;99.90;;;;;;486571;244;27993;-74
2023/02/09 07:18:47;;;;;;;33.53;17.48;;;-6.20;99.90;;;;;;486560;244;28028;-75
2023/02/09 07:20:48;;;;;;;31.62;17.87;;;-6.20;99.90;;;;;;486525;244;27537;-74
2023/02/09 07:22:50;;;;;;;32.80;17.75;;;-6.20;99.90;;;;;;486507;244;27398;-75
2023/02/09 07:24:51;;;;;;;32.88;17.70;;;-6.20;99.90;;;;;;486535;244;27442;-75
2023/02/09 07:26:52;;;;;;;30.62;16.95;;;-6.10;99.90;;;;;;486572;244;27573;-75
2023/02/09 07:28:54;;;;;;;34.05;17.95;;;-6.10;99.90;;;;;;486555;244;28000;-74
2023/02/09 07:30:55;;;;;;;32.17;17.55;;;-6.10;99.90;;;;;;486563;244;27929;-74
2023/02/09 07:32:56;;;;;;;28.60;17.05;;;-6.00;99.90;;;;;;486563;244;27446;-74
2023/02/09 07:34:57;;;;;;;28.52;17.20;;;-6.00;99.90;;;;;;486566;244;27515;-74
2023/02/09 07:36:59;;;;;;;28.77;17.62;;;-6.10;99.90;;;;;;486524;244;27560;-75
2023/02/09 07:39:00;;;;;;;32.60;18.80;;;-6.00;99.90;;;;;;486553;244;27398;-74
2023/02/09 07:41:01;;;;;;;31.92;17.40;;;-6.00;99.90;;;;;;486519;244;27546;-75
2023/02/09 07:43:02;;;;;;;45.78;19.10;;;-5.90;99.90;;;;;;486554;244;27875;-75
2023/02/09 07:45:04;;;;;;;34.90;19.27;;;-5.90;99.90;;;;;;486596;244;27486;-74
2023/02/09 07:47:05;;;;;;;34.47;19.35;;;-5.80;99.90;;;;;;486583;244;27442;-76
2023/02/09 07:49:06;;;;;;;36.63;19.87;;;-5.80;99.90;;;;;;486545;244;27409;-74
2023/02/09 07:51:07;;;;;;;37.40;19.30;;;-5.90;99.90;;;;;;486545;244;27514;-75
2023/02/09 07:53:09;;;;;;;38.83;19.23;;;-5.80;99.90;;;;;;486541;244;27498;-75
2023/02/09 07:55:10;;;;;;;38.08;19.05;;;-5.70;99.90;;;;;;486554;244;27870;-75
2023/02/09 07:57:11;;;;;;;29.50;16.70;;;-5.70;99.90;;;;;;486549;244;28011;-75
2023/02/09 07:59:12;;;;;;;36.22;18.75;;;-5.70;99.90;;;;;;486550;244;27462;-75
2023/02/09 08:01:14;;;;;;;32.65;18.27;;;-5.60;99.90;;;;;;486534;244;27564;-75
2023/02/09 08:03:15;;;;;;;31.98;18.12;;;-5.60;99.90;;;;;;486592;244;27525;-77
2023/02/09 08:05:16;;;;;;;34.50;18.15;;;-5.50;99.90;;;;;;486573;244;27419;-75
2023/02/09 08:07:17;;;;;;;29.25;17.20;;;-5.40;99.90;;;;;;486568;244;28049;-75
2023/02/09 08:09:19;;;;;;;32.67;18.48;;;-5.40;99.90;;;;;;486554;244;27949;-74
2023/02/09 08:11:20;;;;;;;34.42;19.15;;;-5.30;99.90;;;;;;486532;244;27525;-75
2023/02/09 08:13:21;;;;;;;30.80;18.73;;;-5.30;99.90;;;;;;486589;244;27513;-75
2023/02/09 08:15:22;;;;;;;35.92;17.87;;;-5.20;99.90;;;;;;486578;244;27500;-74
2023/02/09 08:17:26;;;;;;;31.20;17.75;;;-5.20;99.90;;;;;;486569;244;27446;-75
2023/02/09 08:19:25;;;;;;;29.40;17.30;;;-5.10;99.90;;;;;;486506;244;27402;-74
2023/02/09 08:21:28;;;;;;;33.72;18.98;;;;;;;;;;486489;244;27917;-75
2023/02/09 08:23:29;;;;;;;32.67;18.77;;;-5.10;99.90;;;;;;486576;244;26821;-75
2023/02/09 08:25:30;;;;;;;27.80;16.45;;;-5.10;99.90;;;;;;486527;244;27498;-75
2023/02/09 08:27:31;;;;;;;27.13;16.42;;;-5.00;99.90;;;;;;486529;244;27855;-74
2023/02/09 08:29:34;;;;;;;28.65;16.35;;;;;;;;;;486536;244;28011;-75
2023/02/09 08:31:35;;;;;;;27.52;17.15;;;-4.90;99.90;;;;;;486540;244;26392;-75
2023/02/09 08:33:37;;;;;;;31.73;18.60;;;;;;;;;;486513;244;27999;-75
2023/02/09 08:35:40;;;;;;;35.33;21.15;;;;;;;;;;486501;244;26877;-75
2023/02/09 08:37:42;;;;;;;39.63;21.05;;;;;;;;;;486477;244;27195;-75
2023/02/09 08:39:45;;;;;;;37.35;19.67;;;;;;;;;;486521;244;27413;-75
2023/02/09 08:41:46;;;;;;;43.17;22.48;;;-4.60;99.90;;;;;;486533;244;27107;-75
2023/02/09 08:43:48;;;;;;;40.17;20.52;;;;;;;;;;486533;244;27494;-75
2023/02/09 08:45:51;;;;;;;30.52;18.00;;;;;;;;;;486516;244;26515;-75
2023/02/09 08:47:52;;;;;;;30.33;17.58;;;-4.20;99.90;;;;;;486542;244;26535;-75
2023/02/09 08:49:53;;;;;;;36.83;20.27;;;-4.10;99.90;;;;;;486557;244;28505;-75
2023/02/09 08:51:55;;;;;;;35.30;20.23;;;-4.00;99.90;;;;;;486533;244;27099;-76
2023/02/09 08:53:56;;;;;;;41.63;22.42;;;-3.90;99.90;;;;;;486548;244;27140;-75
2023/02/09 08:55:58;;;;;;;33.30;19.15;;;;;;;;;;486518;244;26997;-75
2023/02/09 08:58:00;;;;;;;38.90;21.10;;;-3.80;99.90;;;;;;486566;244;27054;-76
2023/02/09 09:00:01;;;;;;;39.42;23.00;;;-3.70;99.90;;;;;;486547;244;26978;-75
2023/02/09 09:02:02;;;;;;;37.53;21.87;;;-3.60;99.90;;;;;;486526;244;27201;-75
2023/02/09 09:04:05;;;;;;;35.38;21.12;;;;;;;;;;486529;244;27215;-76
2023/02/09 09:06:06;;;;;;;40.67;21.90;;;-3.50;99.90;;;;;;486547;244;26718;-75
2023/02/09 09:08:07;;;;;;;27.70;17.55;;;-3.30;99.90;;;;;;486556;244;27259;-75
2023/02/09 09:10:08;;;;;;;34.17;19.85;;;-3.20;99.90;;;;;;486533;244;27241;-76
2023/02/09 09:12:10;;;;;;;34.65;21.20;;;-3.10;99.90;;;;;;486554;244;27548;-75
2023/02/09 09:14:11;;;;;;;47.17;24.08;;;-3.10;99.90;;;;;;486574;244;27434;-75
2023/02/09 09:16:12;;;;;;;38.13;22.98;;;-3.00;99.90;;;;;;486555;244;27859;-75
2023/02/09 09:18:13;;;;;;;39.65;23.48;;;-3.00;99.90;;;;;;486536;244;27327;-76
2023/02/09 09:20:15;;;;;;;42.47;22.15;;;-2.90;99.90;;;;;;486538;244;27461;-76
2023/02/09 09:22:16;;;;;;;35.28;21.85;;;-2.80;99.90;;;;;;486547;244;27547;-75
2023/02/09 09:24:17;;;;;;;39.50;22.50;;;-2.70;99.90;;;;;;486571;244;27811;-76
2023/02/09 09:26:18;;;;;;;38.75;22.73;;;-2.60;99.90;;;;;;486516;244;27458;-76
2023/02/09 09:28:20;;;;;;;34.28;21.48;;;-2.60;99.90;;;;;;486527;244;27922;-75
2023/02/09 09:30:21;;;;;;;34.28;18.87;;;-2.50;99.90;;;;;;486521;244;28945;-75
2023/02/09 09:32:23;;;;;;;40.35;22.02;;;-2.50;99.90;;;;;;486509;244;27195;-75
2023/02/09 09:34:23;;;;;;;35.15;21.30;;;-2.40;99.90;;;;;;486536;244;27466;-76
2023/02/09 09:36:25;;;;;;;39.00;22.73;;;-2.30;99.90;;;;;;486533;244;27494;-76
2023/02/09 09:38:26;;;;;;;35.63;21.30;;;-2.20;99.90;;;;;;486491;242;27477;-76
2023/02/09 09:40:27;;;;;;;37.00;22.00;;;-2.20;99.90;;;;;;486507;244;27919;-75
2023/02/09 09:42:28;;;;;;;27.62;16.92;;;-2.20;99.90;;;;;;486542;244;29143;-76
2023/02/09 09:44:30;;;;;;;38.42;21.15;;;-2.10;99.90;;;;;;486546;244;27434;-76
2023/02/09 09:46:31;;;;;;;37.67;20.02;;;-2.10;99.90;;;;;;486551;244;27545;-75
2023/02/09 09:48:32;;;;;;;32.78;17.75;;;-2.10;99.90;;;;;;486511;244;27485;-75
2023/02/09 09:50:33;;;;;;;33.00;18.90;;;-2.10;99.90;;;;;;486494;244;27423;-76
2023/02/09 09:52:35;;;;;;;36.42;21.23;;;-2.00;99.90;;;;;;486535;244;27411;-75
2023/02/09 09:54:36;;;;;;;34.75;21.00;;;-2.00;99.90;;;;;;486569;244;28043;-76
2023/02/09 09:56:37;;;;;;;37.10;21.10;;;-2.00;99.90;;;;;;486548;244;27466;-76
2023/02/09 09:58:38;;;;;;;43.30;24.05;;;-1.80;99.90;;;;;;486528;244;27486;-76
2023/02/09 10:00:40;;;;;;;34.75;20.05;;;-1.70;99.90;;;;;;486524;244;27473;-76
2023/02/09 10:02:41;;;;;;;32.90;20.37;;;-1.60;99.90;;;;;;486550;244;27399;-76
2023/02/09 10:04:42;;;;;;;40.33;21.75;;;-1.50;99.90;;;;;;486554;244;27470;-76
2023/02/09 10:06:44;;;;;;;31.75;19.02;;;-1.50;99.90;;;;;;486544;244;27880;-75
2023/02/09 10:08:45;;;;;;;30.65;18.52;;;-1.40;99.90;;;;;;486534;244;27915;-76
2023/02/09 10:10:46;;;;;;;33.15;20.08;;;-1.40;99.90;;;;;;486516;244;27486;-75
2023/02/09 10:12:47;;;;;;;35.33;20.70;;;-1.30;99.90;;;;;;486539;244;27519;-76
2023/02/09 10:14:49;;;;;;;31.30;19.87;;;-1.30;99.90;;;;;;486555;244;27526;-76
2023/02/09 10:16:50;;;;;;;32.63;19.23;;;-1.30;99.90;;;;;;486538;244;27486;-76
2023/02/09 10:18:51;;;;;;;36.60;20.17;;;-1.20;99.90;;;;;;486468;244;28037;-76
2023/02/09 10:20:52;;;;;;;36.28;19.27;;;-1.10;99.90;;;;;;486491;244;28966;-76
2023/02/09 10:22:54;;;;;;;30.17;17.95;;;-1.00;99.90;;;;;;486566;244;27533;-76
2023/02/09 10:24:55;;;;;;;30.62;18.73;;;-1.00;99.90;;;;;;486524;244;27454;-76
2023/02/09 10:26:56;;;;;;;28.83;18.48;;;-1.00;99.90;;;;;;486525;244;27502;-76
2023/02/09 10:28:57;;;;;;;28.58;18.05;;;-1.00;99.90;;;;;;486496;244;27524;-76
2023/02/09 10:30:59;;;;;;;30.30;19.33;;;-0.90;99.90;;;;;;486522;244;27978;-76
2023/02/09 10:33:00;;;;;;;31.77;18.27;;;-0.80;99.90;;;;;;486512;244;27854;-76
2023/02/09 10:35:03;;;;;;;28.25;17.62;;;-0.80;99.90;;;;;;486510;244;27422;-76
2023/02/09 10:37:02;;;;;;;40.70;23.23;;;-0.60;99.90;;;;;;486487;244;27401;-76